Terminal Aerodrome Forecast
Issued by NWS Boise, ID

Home | Current Version | Previous Version | Text Only | Print | Product List | Glossary On
Versions: 1 2 3 4 5 6 7 8 9 10 11 12
000
FTUS45 KBOI 212320
TAFBNO
TAF
KBNO 212320Z 2200/2224 25012G18KT P6SM SKC
     FM220100 28007KT P6SM SKC
     FM221900 27010G15KT P6SM BKN100=

USA.gov is the U.S. government's official web portal to all federal, state and local government web resources and services.